Aviation Digital Data Service (ADDS)

Output produced by METARs form (1104 UTC 19 January 2019)
found at http://www.aviationweather.gov/metar/data/
 
KALN 191055Z AUTO 36006KT 10SM BKN005 OVC015 01/01 A2974 RMK AO2 T00110011 TSNO
KBLV 191056Z 03007KT 10SM -RA OVC006 03/03 A2971 RMK AO2A CIG 004 RWY14L CIG 004 RWY32L CIG 003 RWY32R SLP067 P0003 T00310025 $
TAF KBLV 190800Z 1908/2014 04009KT 6000 -RA OVC004 510043 520554 QNH2970INS 
     BECMG 1917/1918 36020G25KT 9000 -SN OVC006 620069 510043 QNH2974INS 
     BECMG 1920/1921 35020G30KT 1200 -SN OVC011 620119 510003 QNH2982INS 
     BECMG 1923/1924 35020KT 6000 -SN OVC012 620129 510053 QNH2995INS 
     BECMG 2002/2003 35025G35KT 9999 NSW OVC013 510003 QNH3009INS 
     BECMG 2008/2009 34015G20KT 9999 BKN014 510023 QNH3024INS 
     BECMG 2011/2012 34010G15KT 9999 SCT015 510023 QNH3030INS TX04/1908Z
TNM07/2008Z
       
KBMI 191056Z AUTO 04021KT 1 1/2SM R20/5000V5500FT -SN BR BKN005 OVC010 M03/M03 A2985 RMK AO2 SLP115 P0000 T10281028 FZRANO
KBMI 190700Z 1907/2006 06019KT 1 1/2SM -SN BR OVC004 
     FM190900 06015G25KT 1 1/2SM -SN OVC003 
     FM191700 03023G33KT 1 1/2SM -SN BLSN OVC008 
     FM192100 02023G35KT P6SM OVC010 
     FM200300 35015G23KT P6SM BKN035
       
KCPS 191053Z AUTO 01009KT 10SM UP BKN005 OVC028 02/01 A2972 RMK AO2 RAE47UPB47 SLP067 P0002 T00220011
KCPS 190834Z 1909/2006 02008KT 4SM -RA BR OVC005 
     FM191000 03014G20KT 3SM RA BR OVC004 
     FM191300 01016G24KT 2SM -SN BR OVC004 
     FM191800 36017G30KT 1SM -SN BLSN OVC006 
     FM192300 35018G28KT 6SM BLSN OVC015 
     FM200300 35015G25KT P6SM BKN025
       
KCIR 191055Z AUTO 00000KT 4SM DZ OVC006 10/10 A2961 RMK AO2 P0004 T01020102
KMDH 191052Z AUTO 05005KT 10SM OVC005 04/04 A2965 RMK AO2 RAE43 SLP042 P0004 T00440044
KCUL 191056Z AUTO 09012KT 2 1/2SM RA BKN007 OVC013 05/05 A2966 RMK AO2
KENL 191055Z AUTO 03005KT 4SM -RA BKN003 OVC006 05/05 A2969 RMK AO2 P0006 T00450045
KCMI 191053Z AUTO 06019G27KT 7SM UP OVC005 01/00 A2979 RMK AO2 PK WND 06028/1023 RAE47UPB47 SLP094 P0003 I1000 T00060000
KCMI 190632Z 1907/2006 07010KT 1 1/2SM BR VCSH OVC006 
     FM190800 07013KT 4SM -RASN BR OVC006 
     FM190900 06016G25KT 1SM -SN BLSN OVC005 
     FM191900 03023G33KT 2SM -SN BLSN OVC008 
     FM192200 01023G33KT P6SM OVC010 
     FM200400 36016G25KT P6SM OVC015
       
KARR 191100Z AUTO 03015KT 1SM -SN BR VV015 M02/M04 A3000 RMK AO2 P0000 T10221039 TSNO
KPWK 191100Z AUTO 05013G23KT 1 1/4SM -SN BR BKN008 BKN013 OVC018 M02/M04 A3005 RMK AO2 P0000 T10221044
KMDW 191053Z 07018G28KT 3/4SM R31C/4500V5500FT -SN BR OVC008 M02/M03 A3000 RMK AO2 PK WND 06028/1045 SLP172 DRSN SNINCR 1/4 P0001 T10221033
KMDW 190903Z 1909/2012 07014G22KT 1SM -SN BR OVC009 
     TEMPO 1909/1911 3/4SM -SN 
     FM191200 05016G25KT 2SM -SN OVC009 
     FM191600 04018G29KT 2SM -SN BLSN OVC010 
     FM191800 02018G29KT 6SM BLSN OVC012 
     FM200000 01017G27KT 6SM -SN BLSN SCT015 BKN025 
     FM200500 36014G21KT 5SM -SHSN SCT015 BKN025 
     PROB30 2006/2012 1SM -SN OVC009
       
KORD 191051Z 05015KT 1SM R10L/P6000FT -SN BR OVC009 M03/M04 A3001 RMK AO2 SLP171 P0002 T10281039
KORD 190903Z 1909/2012 07015G25KT 1SM -SN BR OVC009 
     TEMPO 1909/1911 1/2SM SN 
     FM191200 05016G25KT 2SM -SN OVC009 
     FM191600 04018G29KT 2SM -SN BLSN OVC010 
     FM191800 02018G29KT 6SM BLSN OVC012 
     FM200000 01017G27KT 6SM -SN BLSN SCT015 BKN025 
     FM200400 36014G21KT 5SM -SHSN SCT015 BKN025 
     PROB30 2004/2010 1SM -SN OVC009
       
KDPA 191052Z 04011G21KT 3/4SM R02L/5000FT -SN BR VV013 M03/M04 A3001 RMK AO2 SLP172 P0001 T10281044
KDPA 190903Z 1909/2006 07015G25KT 1SM -SN BR OVC009 
     TEMPO 1909/1911 1/2SM SN 
     FM191200 05016G25KT 2SM -SN OVC009 
     FM191600 03018G29KT 2SM -SN BLSN OVC010 
     FM191800 01018G29KT 6SM BLSN OVC015 
     FM200000 35012G17KT P6SM SCT025 BKN035
       
KIGQ 191055Z AUTO 05010KT 3/4SM -SN OVC009 M03/M03 A2998 RMK AO2 VIS 1/4V1 3/4 T10281035
K06C 191055Z AUTO 04008KT 020V100 1 1/4SM OVC006 M03/M04 A3002 RMK AO2 P0004 T10301040
KUGN 191055Z AUTO 05015G25KT 3/4SM -SN BR BKN007 OVC012 M03/M06 A3006 RMK AO2 PK WND 06031/1002 SLP194 P0002 T10331056
KLOT 191055Z AUTO 06013KT 1 3/4SM -SN OVC008 M02/M03 A2999 RMK AO2 T10231030
KDNV 191055Z AUTO 07013G20KT 2 1/2SM -SN OVC007 00/00 A2980 RMK AO2 T00001005
KDEC 191054Z 03013G21KT 5SM -RA BR OVC006 01/M01 A2980 RMK AO2 PK WND 06026/1011 SLP098 P0004 T00061006
KDEC 190541Z 1906/2006 06007KT 1 1/2SM BR VCSH OVC006 
     FM190700 08019KT 3SM -RA BR OVC005 
     FM191100 06019G25KT 1 1/2SM -SN OVC005 
     FM191500 03022G32KT 1SM -SN BLSN OVC008 
     FM192200 01023G34KT P6SM OVC012
       
KDKB 191055Z AUTO 02017G20KT 1 1/2SM -SN BKN006 OVC017 M03/M04 A3002 RMK AO2 T10341040
K1H2 191055Z AUTO 03004KT 2SM -RA OVC005 03/03 A2976 RMK AO2 P0024 T00260026
KFWC 191055Z AUTO 08003KT 5SM RA OVC005 05/05 A2967 RMK AO1 P0020 T00480048
KFOA 191055Z AUTO 34006KT 1 3/4SM UP OVC005 05/05 A2972 RMK AO2 P0022 T00510046
KFEP 191055Z AUTO 02016G23KT 2SM -SN OVC023 M09/M11 A3011 RMK AO2 T10951113
KGBG 191055Z AUTO 02022G29KT 2 1/2SM -SN SCT009 OVC016 M05/M06 A2995 RMK AO2 T10511060
KHSB 191055Z AUTO 08007KT 3SM RA BKN004 OVC012 06/06 A2966 RMK AO2 P0013 T00550055
KIJX 191055Z AUTO 02013G21KT 4SM UP OVC005 M01/M01 A2983 RMK AO2 T10061014
KIKK 191055Z AUTO 06014G21KT 1 1/4SM -SN OVC006 M02/M03 A2994 RMK AO2 T10211031
KC75 191055Z AUTO 03008G14KT 3/4SM SN OVC007 M02/M03 A2993 RMK AO2 P0001 T10201027
KLWV 191053Z AUTO 09012KT 3SM RA BR OVC006 04/03 A2973 RMK AO2 SLP070 P0013 T00440028
KAAA 191055Z AUTO 03018G22KT 2SM -SN BKN006 BKN018 OVC028 M01/M01 A2984 RMK AO2 T10061011
K3LF 191055Z AUTO 02009G14KT 5SM BR OVC004 00/00 A2976 RMK AO2 P0001 T00030002
KMQB 191055Z AUTO 02022KT 3SM UP SCT008 BKN015 OVC023 M04/M05 A2995 RMK AO2 T10451055
KMWA 191055Z AUTO 05007KT 5SM DZ BKN004 BKN008 OVC016 05/05 A2966 RMK AO2 T00450045
KM30 191055Z AUTO 16006KT 5SM +DZ OVC005 M20/M25 A2962 RMK AO2 P0001 T12041253
KMLI 191101Z AUTO 04017G26KT 4SM -SN BR SCT015 SCT042 OVC070 M05/M07 A3001 RMK AO2 PK WND 04026/1101 P0000 T10501072 $
KMLI 190939Z 1910/2006 03017G26KT 1SM -SN BR OVC015 
     FM191200 03016G25KT 3SM -SN BLSN SCT015 OVC035 
     FM191500 02018G27KT 5SM BLSN OVC020 
     FM192300 36013KT P6SM SCT025
       
KC09 191055Z AUTO 04006KT 3/4SM SN SCT003 BKN006 OVC012 M02/M02 A2997 RMK AO2 P0006 T10201023
KAJG 191055Z AUTO 09013KT 3SM RA OVC006 04/04 A2971 RMK AO2 T00420038
KI63 191055Z AUTO 02017G21KT 2 1/2SM BR OVC008 M02/M02 A2986 RMK AO2 T10181022
KMVN 190956Z AUTO 09004KT 4SM -RA BR OVC006 04/04 A2969 RMK AO2 SLP057 P0030 T00440044
KOLY 191055Z AUTO 09013G18KT 3SM RA OVC005 04/04 A2969 RMK AO2 P0030 T00420042
KPRG 191055Z AUTO 07013G19KT 5SM RA OVC006 02/01 A2980 RMK AO2 P0002 T00170012
KPIA 191101Z 04016G27KT 2SM -SN BR BKN008 BKN014 OVC022 M01/M03 A2991 RMK AO2 PK WND 03027/1059 P0000 T10111028
KPIA 191015Z 1910/2006 04014G22KT 3/4SM -SN BR OVC008 
     FM191300 05017G27KT 3SM -SN OVC008 
     FM191700 03017G29KT 5SM BLSN VCSH OVC010 
     FM192200 01017G30KT P6SM OVC020 
     FM200400 36011KT P6SM BKN200
       
KVYS 191055Z AUTO 03018G21KT 1 1/4SM -SN OVC006 M03/M04 A2998 RMK AO2 T10281037
KPPQ 191055Z AUTO 01014G19KT 4SM OVC004 00/00 A2984 RMK AO2 T00001002
KPNT 191055Z AUTO 04019KT 2 1/2SM -SN SCT006 OVC013 M02/M02 A2992 RMK AO2 T10201022
KUIN 191054Z AUTO 01020KT 1 3/4SM -SN BR OVC008 M02/M03 A2988 RMK AO2 UPE0956B34E41SNB41 CIG 006V011 SLP124 P0000 T10171033 $
KUIN 190830Z 1909/2006 04014KT 1SM -SN BR OVC005 
     FM191000 03018G25KT 1SM -SN BLSN OVC004 
     FM191700 01020G29KT 3SM BLSN OVC013 
     FM192000 36020G29KT P6SM OVC016 
     FM200200 35015G25KT P6SM SCT025
       
KTIP 191055Z AUTO 06016G23KT 4SM -RA OVC005 00/00 A2983 RMK AO2 T10021003
KRSV 191055Z AUTO 08009KT 3SM RA OVC005 03/03 A2976 RMK AO2 P0011 T00250025
KRPJ 191055Z AUTO 02020G28KT 2 1/2SM -SN SCT007 OVC021 M04/M05 A3003 RMK AO2 T10431050
KRFD 191054Z 36019KT 1 1/4SM -SN BR OVC016 M07/M09 A3009 RMK AO2 SLP202 P0002 T10721094
KRFD 190903Z 1909/2006 03015G25KT 2SM -SN OVC012 
     TEMPO 1909/1911 1SM -SN 
     FM191100 03015G25KT 2SM -SN OVC012 
     FM191500 03018G29KT 5SM -SN BLSN OVC012 
     FM191800 01017G27KT 6SM BLSN BKN015 OVC020 
     FM200000 36012KT P6SM SCT025
       
KSLO 191055Z AUTO 03006KT 3SM RA OVC004 04/04 A2971 RMK AO2 P0003 T00440037
KSFY 191056Z AUTO 02014KT 3SM -SN SCT024 SCT031 OVC037 M08/M10 A3008 RMK AO2
KSAR 191055Z AUTO 36007KT 3SM -DZ OVC002 03/03 A2971 RMK AO2 P0001 T00320032
KSPI 191052Z AUTO 04014G24KT 2 1/2SM -SN BR OVC006 00/M01 A2982 RMK AO2 UPE05FZRAB05E38SNB38 SLP104 P0003 I1002 T00001006
KSPI 191014Z 1910/2006 04014KT 3SM -FZRA BR OVC005 
     FM191200 06015G25KT 1 1/2SM -SN OVC005 
     FM191700 03023G35KT 2SM -SN BLSN OVC008 
     FM192100 01020G32KT P6SM OVC010 
     FM200200 35014G23KT P6SM BKN035
       
KSQI 191056Z AUTO 03017G26KT 3SM -SN BR OVC023 M07/M08 A3004 RMK AO2 PK WND 03026/1050 SLP196 P0000 T10721083 FZRANO
KTAZ 191055Z AUTO 02012KT 5SM BR OVC005 00/00 A2979 RMK AO2 T00020000